createdAt,value
2023-03-20T06:00:37.481Z,100312.50
2023-03-20T06:03:33.531Z,100316.09
2023-03-20T06:06:08.247Z,100305.47
2023-03-20T06:08:37.060Z,100300.19
2023-03-20T06:11:04.411Z,100311.47
2023-03-20T06:13:33.678Z,100303.66
2023-03-20T06:16:01.941Z,100306.44
2023-03-20T06:18:29.690Z,100317.75
2023-03-20T06:20:57.658Z,100312.47
2023-03-20T06:23:28.166Z,100308.03
2023-03-20T06:25:55.912Z,100301.84
2023-03-20T06:28:24.185Z,100305.31
2023-03-20T06:31:00.810Z,100312.38
2023-03-20T06:33:28.906Z,100311.50
2023-03-20T06:36:01.212Z,100315.91
2023-03-20T06:38:30.710Z,100308.97
2023-03-20T06:40:59.197Z,100309.72
2023-03-20T06:43:26.724Z,100310.53
2023-03-20T06:45:53.777Z,100318.47
2023-03-20T06:48:27.471Z,100319.25
2023-03-20T06:50:54.811Z,100313.06
2023-03-20T06:53:26.981Z,100319.09
2023-03-20T06:56:04.557Z,100321.66
2023-03-20T06:58:31.777Z,100322.59
2023-03-20T07:00:58.576Z,100322.50
2023-03-20T07:03:26.123Z,100333.03
2023-03-20T07:05:53.736Z,100331.06
2023-03-20T07:08:22.597Z,100332.91
2023-03-20T07:10:50.116Z,100329.47
2023-03-20T07:13:17.083Z,100334.75
2023-03-20T07:16:01.157Z,100336.53
2023-03-20T07:18:34.220Z,100343.59
2023-03-20T07:21:03.450Z,100347.28
2023-03-20T07:23:31.834Z,100351.72
2023-03-20T07:26:02.614Z,100344.69
2023-03-20T07:28:30.068Z,100348.19
2023-03-20T07:31:20.269Z,100362.28
2023-03-20T07:33:49.398Z,100369.41
2023-03-20T07:36:16.208Z,100358.88
2023-03-20T07:38:46.840Z,100351.78
2023-03-20T07:41:15.047Z,100360.63
2023-03-20T07:43:47.224Z,100356.22
2023-03-20T07:46:21.741Z,100361.47
2023-03-20T07:48:48.694Z,100362.28
2023-03-20T07:51:15.890Z,100360.34
2023-03-20T07:53:42.552Z,100363.06
2023-03-20T07:56:10.622Z,100358.69
2023-03-20T07:58:38.143Z,100364.78
2023-03-20T08:01:04.944Z,100368.19
2023-03-20T08:03:32.959Z,100368.28
2023-03-20T08:05:59.951Z,100370.00
2023-03-20T08:08:27.307Z,100367.25
2023-03-20T08:10:54.312Z,100370.81
2023-03-20T08:13:21.418Z,100373.50
2023-03-20T08:15:48.544Z,100366.28
2023-03-20T08:18:15.307Z,100371.66
2023-03-20T08:20:43.059Z,100383.06
2023-03-20T08:23:09.633Z,100376.97
2023-03-20T08:25:37.083Z,100376.78
2023-03-20T08:28:05.131Z,100377.47
2023-03-20T08:30:31.879Z,100370.25
2023-03-20T08:32:59.409Z,100379.84
2023-03-20T08:35:46.006Z,100377.28
2023-03-20T08:38:13.928Z,100384.00
2023-03-20T08:40:42.388Z,100376.72
2023-03-20T08:43:09.303Z,100383.66
2023-03-20T08:45:48.388Z,100383.34
2023-03-20T08:48:16.458Z,100389.25
2023-03-20T08:50:44.695Z,100375.19
2023-03-20T08:53:12.381Z,100378.56
2023-03-20T08:55:39.075Z,100371.31
2023-03-20T08:58:06.136Z,100372.13
2023-03-20T09:00:33.673Z,100374.53
2023-03-20T09:03:00.832Z,100369.03
2023-03-20T09:05:28.139Z,100372.44
2023-03-20T09:07:55.314Z,100375.81
2023-03-20T09:10:22.025Z,100366.88
2023-03-20T09:12:55.157Z,100375.81
2023-03-20T09:15:22.380Z,100379.31
2023-03-20T09:17:50.181Z,100379.41
2023-03-20T09:20:16.977Z,100366.88
2023-03-20T09:22:46.128Z,100379.22
2023-03-20T09:25:13.359Z,100379.31
2023-03-20T09:27:41.224Z,100375.72
2023-03-20T09:30:13.139Z,100377.47
2023-03-20T09:32:47.540Z,100377.38
2023-03-20T09:38:01.719Z,100375.81
2023-03-20T09:40:49.763Z,100387.19
2023-03-20T09:43:52.074Z,100389.75
2023-03-20T09:46:38.545Z,100389.31
2023-03-20T09:49:30.595Z,100392.56
2023-03-20T09:52:05.279Z,100397.69
2023-03-20T09:54:53.544Z,100384.47
2023-03-20T09:57:58.837Z,100386.25
2023-03-20T10:00:28.894Z,100392.19
2023-03-20T10:03:25.144Z,100395.84
2023-03-20T10:06:01.727Z,100390.63
2023-03-20T10:08:34.084Z,100387.63
2023-03-20T10:11:27.715Z,100383.81
2023-03-20T10:14:04.109Z,100378.50
2023-03-20T10:16:53.637Z,100386.16
2023-03-20T10:19:34.530Z,100380.56
2023-03-20T10:22:11.591Z,100372.28
2023-03-20T10:24:55.598Z,100379.03
2023-03-20T10:27:28.092Z,100378.19
2023-03-20T10:30:39.376Z,100385.25
2023-03-20T10:33:51.209Z,100376.56
2023-03-20T10:36:22.060Z,100376.22
2023-03-20T10:39:16.707Z,100377.03
2023-03-20T10:41:57.089Z,100368.97
2023-03-20T10:44:31.977Z,100364.56
2023-03-20T10:47:03.032Z,100369.19
2023-03-20T10:49:30.962Z,100369.91
2023-03-20T10:52:05.160Z,100368.03
2023-03-20T10:54:42.455Z,100353.78
2023-03-20T10:57:24.447Z,100354.44
2023-03-20T10:59:52.582Z,100354.03
2023-03-20T11:02:23.698Z,100352.69
2023-03-20T11:04:51.137Z,100353.81
2023-03-20T11:07:28.729Z,100344.84
2023-03-20T11:10:07.959Z,100340.94
2023-03-20T11:12:35.393Z,100336.44
2023-03-20T11:15:14.592Z,100338.13
2023-03-20T11:17:42.186Z,100340.63
2023-03-20T11:20:13.965Z,100332.66
2023-03-20T11:22:42.161Z,100329.78
2023-03-20T11:25:23.829Z,100324.63
2023-03-20T11:27:51.437Z,100333.03
2023-03-20T11:30:18.403Z,100319.75
2023-03-20T11:32:51.443Z,100316.88
2023-03-20T11:35:17.980Z,100316.09
2023-03-20T11:37:48.021Z,100313.97
2023-03-20T11:40:34.245Z,100310.16
2023-03-20T11:43:01.351Z,100315.38
2023-03-20T11:45:35.724Z,100299.38
2023-03-20T11:48:04.826Z,100305.47
2023-03-20T11:50:43.086Z,100301.69
2023-03-20T11:53:31.757Z,100299.97
2023-03-20T11:56:22.934Z,100302.38
2023-03-20T11:59:07.036Z,100308.28
2023-03-20T12:01:49.216Z,100310.94
2023-03-20T12:04:26.380Z,100302.03
2023-03-20T12:07:05.143Z,100291.72
2023-03-20T12:09:38.386Z,100297.16
2023-03-20T12:12:15.475Z,100298.81
2023-03-20T12:14:56.427Z,100289.41
2023-03-20T12:17:51.244Z,100291.84
2023-03-20T12:20:36.739Z,100292.13
2023-03-20T12:23:09.683Z,100294.91
2023-03-20T12:25:45.360Z,100298.25
2023-03-20T12:28:18.729Z,100302.31
2023-03-20T12:30:51.465Z,100301.78
2023-03-20T12:33:34.450Z,100290.66
2023-03-20T12:36:02.662Z,100295.41
2023-03-20T12:38:34.494Z,100296.03
2023-03-20T12:41:13.111Z,100293.69
2023-03-20T12:44:10.292Z,100294.47
2023-03-20T12:47:26.390Z,100293.88
2023-03-20T12:50:17.424Z,100289.22
2023-03-20T12:53:09.046Z,100290.91
2023-03-20T12:56:03.923Z,100282.81
2023-03-20T12:58:40.119Z,100284.56
2023-03-20T13:01:19.163Z,100289.25
2023-03-20T13:04:04.706Z,100289.00
2023-03-20T13:06:54.553Z,100293.75
2023-03-20T13:09:37.581Z,100288.28
2023-03-20T13:12:29.506Z,100282.19
2023-03-20T13:15:29.788Z,100283.94
2023-03-20T13:18:16.215Z,100286.19
2023-03-20T13:20:52.081Z,100281.56
2023-03-20T13:23:40.053Z,100281.09
2023-03-20T13:26:36.428Z,100282.31
2023-03-20T13:29:12.886Z,100279.72
2023-03-20T13:31:47.578Z,100281.56
2023-03-20T13:34:33.565Z,100276.25
2023-03-20T13:37:22.458Z,100275.38
2023-03-20T13:40:16.817Z,100278.56
2023-03-20T13:43:11.542Z,100276.22
2023-03-20T13:45:41.718Z,100274.84
2023-03-20T13:48:27.232Z,100275.06
2023-03-20T13:51:02.223Z,100275.28
2023-03-20T13:53:32.732Z,100262.69
2023-03-20T13:56:15.549Z,100266.16
2023-03-20T13:59:24.081Z,100264.41
2023-03-20T14:02:00.850Z,100262.69
2023-03-20T14:04:30.863Z,100259.19
2023-03-20T14:06:58.344Z,100271.94
2023-03-20T14:09:33.028Z,100266.91
2023-03-20T14:12:07.434Z,100260.94
2023-03-20T14:14:50.492Z,100256.41
2023-03-20T14:17:20.794Z,100265.34
2023-03-20T14:19:49.361Z,100261.00
2023-03-20T14:22:22.484Z,100265.22
2023-03-20T14:24:59.728Z,100263.13
2023-03-20T14:27:43.890Z,100262.16
2023-03-20T14:30:30.129Z,100260.53
2023-03-20T14:33:05.817Z,100261.41
2023-03-20T14:35:38.545Z,100257.94
2023-03-20T14:38:20.159Z,100265.06
2023-03-20T14:41:06.744Z,100258.03
2023-03-20T14:43:42.936Z,100253.69
2023-03-20T14:46:26.369Z,100256.19
2023-03-20T14:48:55.301Z,100255.25
2023-03-20T14:51:31.109Z,100261.69
2023-03-20T14:54:25.470Z,100253.75
2023-03-20T14:56:52.874Z,100254.03
2023-03-20T14:59:22.951Z,100252.59
2023-03-20T15:01:59.740Z,100250.13
2023-03-20T15:04:35.089Z,100259.28
2023-03-20T15:07:15.717Z,100248.56
2023-03-20T15:09:47.897Z,100252.00
2023-03-20T15:12:19.377Z,100256.75
2023-03-20T15:15:00.991Z,100253.06
2023-03-20T15:17:44.327Z,100252.19
2023-03-20T15:20:29.133Z,100244.50
2023-03-20T15:23:00.541Z,100249.72
2023-03-20T15:25:44.016Z,100248.84
2023-03-20T15:28:20.490Z,100245.50
2023-03-20T15:30:50.644Z,100242.63
2023-03-20T15:33:27.204Z,100234.63
2023-03-20T15:35:55.302Z,100242.22
2023-03-20T15:38:22.454Z,100249.50
2023-03-20T15:40:51.419Z,100232.81
2023-03-20T15:43:24.905Z,100235.91
2023-03-20T15:46:14.191Z,100235.16
2023-03-20T15:48:47.407Z,100233.47
2023-03-20T15:51:14.848Z,100231.81
2023-03-20T15:53:46.717Z,100239.03
2023-03-20T15:56:18.985Z,100236.53
2023-03-20T15:58:49.480Z,100225.13
2023-03-20T16:01:19.953Z,100242.94
2023-03-20T16:03:48.070Z,100228.22
2023-03-20T16:06:19.944Z,100233.50
2023-03-20T16:09:00.232Z,100233.56
2023-03-20T16:11:39.876Z,100227.72
2023-03-20T16:14:10.881Z,100221.03
2023-03-20T16:16:38.436Z,100222.06
2023-03-20T16:19:07.064Z,100221.91
2023-03-20T16:21:40.799Z,100225.19
2023-03-20T16:24:15.837Z,100234.06
2023-03-20T16:26:48.273Z,100215.44
2023-03-20T16:29:16.103Z,100220.75
2023-03-20T16:31:55.766Z,100217.47
2023-03-20T16:34:36.789Z,100222.78
2023-03-20T16:37:08.893Z,100225.38
2023-03-20T16:39:36.197Z,100219.38
2023-03-20T16:42:22.587Z,100227.22
2023-03-20T16:44:56.025Z,100215.72
2023-03-20T16:47:41.411Z,100218.63
2023-03-20T16:50:22.870Z,100220.56
2023-03-20T16:52:58.491Z,100228.44
2023-03-20T16:55:31.868Z,100222.16
2023-03-20T16:58:03.456Z,100215.25
2023-03-20T17:00:44.175Z,100214.38
2023-03-20T17:03:27.192Z,100212.09
2023-03-20T17:06:08.721Z,100225.34
2023-03-20T17:08:42.628Z,100219.91
2023-03-20T17:11:13.760Z,100221.63
2023-03-20T17:13:41.384Z,100223.63
2023-03-20T17:16:19.565Z,100225.50
2023-03-20T17:18:48.465Z,100233.56
2023-03-20T17:21:15.110Z,100238.88
2023-03-20T17:23:42.085Z,100239.91
2023-03-20T17:26:12.808Z,100252.31
2023-03-20T17:28:40.303Z,100244.63
2023-03-20T17:31:07.210Z,100256.94
2023-03-20T17:33:34.741Z,100249.84
2023-03-20T17:36:01.577Z,100248.31
2023-03-20T17:38:28.860Z,100256.28
2023-03-20T17:40:55.419Z,100257.28
2023-03-20T17:43:22.715Z,100258.16
2023-03-20T17:45:49.788Z,100255.50
2023-03-20T17:48:21.478Z,100254.75
2023-03-20T17:50:50.928Z,100256.44
2023-03-20T17:53:20.821Z,100262.72
2023-03-20T17:55:47.711Z,100261.84
2023-03-20T17:58:16.534Z,100254.84
2023-03-20T18:00:44.568Z,100258.34
2023-03-20T18:03:11.762Z,100249.56
2023-03-20T18:05:39.673Z,100256.53
2023-03-20T18:08:12.937Z,100246.91
2023-03-20T18:10:46.604Z,100247.81
2023-03-20T18:13:13.339Z,100246.16
2023-03-20T18:15:41.066Z,100252.59
2023-03-20T18:18:08.681Z,100258.69
2023-03-20T18:20:39.699Z,100255.25
2023-03-20T18:23:07.027Z,100262.34
2023-03-20T18:25:34.925Z,100259.59
2023-03-20T18:28:05.600Z,100264.94
2023-03-20T18:33:57.424Z,100266.66
2023-03-20T18:36:25.017Z,100258.75
2023-03-20T18:38:52.843Z,100266.63
2023-03-20T18:41:20.772Z,100271.25
2023-03-20T18:43:48.665Z,100266.06
2023-03-20T18:46:24.060Z,100274.69
2023-03-20T18:48:52.832Z,100276.59
2023-03-20T18:51:20.824Z,100273.84
2023-03-20T18:53:48.432Z,100277.44
2023-03-20T18:56:20.311Z,100271.50
2023-03-20T18:58:48.353Z,100279.34
2023-03-20T19:01:16.108Z,100272.34
2023-03-20T19:03:44.588Z,100266.38
2023-03-20T19:06:17.245Z,100269.09
2023-03-20T19:08:45.939Z,100277.84
2023-03-20T19:11:17.860Z,100269.09
2023-03-20T19:13:50.265Z,100275.41
2023-03-20T19:16:24.996Z,100264.13
2023-03-20T19:18:53.897Z,100266.75
2023-03-20T19:21:25.994Z,100273.88
2023-03-20T19:23:58.449Z,100264.97
2023-03-20T19:26:27.299Z,100271.84
2023-03-20T19:28:56.607Z,100267.59
2023-03-20T19:31:24.650Z,100271.94
2023-03-20T19:33:52.624Z,100261.47
2023-03-20T19:36:24.123Z,100270.09
2023-03-20T19:38:52.264Z,100265.81
2023-03-20T19:41:20.097Z,100259.81
2023-03-20T19:43:53.192Z,100261.56
2023-03-20T19:46:39.797Z,100265.13
2023-03-20T19:49:30.185Z,100258.22
2023-03-20T19:51:57.776Z,100261.66
2023-03-20T19:54:25.090Z,100262.69
2023-03-20T19:56:51.811Z,100264.47
2023-03-20T19:59:21.092Z,100252.84
2023-03-20T20:01:51.210Z,100252.94
2023-03-20T20:04:18.534Z,100254.84
2023-03-20T20:06:47.492Z,100252.97
2023-03-20T20:09:15.499Z,100255.50
2023-03-20T20:11:42.400Z,100257.41
2023-03-20T20:14:11.965Z,100247.63
2023-03-20T20:16:42.767Z,100247.66
2023-03-20T20:19:10.328Z,100245.00
2023-03-20T20:24:24.364Z,100242.53
2023-03-20T20:26:59.919Z,100251.34
2023-03-20T20:29:41.815Z,100248.75
2023-03-20T20:32:12.586Z,100240.91
2023-03-20T20:40:24.475Z,100221.53
2023-03-20T20:42:54.583Z,100227.78
2023-03-20T20:45:31.414Z,100233.84
2023-03-20T20:48:02.482Z,100224.19
2023-03-20T20:50:32.097Z,100226.75
2023-03-20T20:52:59.205Z,100230.06
2023-03-20T20:55:26.548Z,100221.31
2023-03-20T20:57:55.750Z,100228.34
2023-03-20T21:00:37.073Z,100224.75
2023-03-20T21:03:12.624Z,100218.59
2023-03-20T21:05:42.877Z,100220.22
2023-03-20T21:08:11.113Z,100221.22
2023-03-20T21:10:38.048Z,100221.13
2023-03-20T21:13:04.641Z,100219.41
2023-03-20T21:15:31.808Z,100215.75
2023-03-20T21:18:01.344Z,100216.69
2023-03-20T21:20:30.402Z,100224.72
2023-03-20T21:22:57.181Z,100222.84
2023-03-20T21:25:38.625Z,100218.41
2023-03-20T21:28:07.184Z,100210.34
